Time;durP1;ratioP1;P1;durP2;ratioP2;P2;SDS_P1;SDS_P2;PMS_P1;PMS_P2;Temp;Humidity;BMP_temperature;BMP_pressure;BME280_temperature;BME280_humidity;BME280_pressure;Samples;Min_cycle;Max_cycle;Signal;HPM_P1;HPM_P2
2022/02/08 00:02:00;;;;;;;4.23;2.20;;;6.60;99.90;;;;;;5053524;28;20420;-67
2022/02/08 00:04:27;;;;;;;6.10;2.73;;;6.60;99.90;;;;;;5046194;28;20671;-68
2022/02/08 00:06:53;;;;;;;9.90;3.13;;;6.70;99.90;;;;;;5037425;28;20837;-68
2022/02/08 00:09:20;;;;;;;9.33;3.30;;;6.70;99.90;;;;;;5055644;28;20820;-68
2022/02/08 00:11:45;;;;;;;4.90;2.80;;;6.70;99.90;;;;;;5055983;28;20535;-69
2022/02/08 00:14:11;;;;;;;4.83;2.90;;;6.70;99.90;;;;;;5047101;28;20503;-69
2022/02/08 00:16:36;;;;;;;8.27;3.30;;;6.70;99.90;;;;;;5035974;28;20198;-69
2022/02/08 00:19:02;;;;;;;10.93;2.90;;;6.70;99.90;;;;;;5035862;28;20226;-69
2022/02/08 00:21:28;;;;;;;6.00;2.97;;;6.70;99.90;;;;;;5044287;28;20261;-69
2022/02/08 00:23:53;;;;;;;9.10;3.50;;;6.60;99.90;;;;;;5056201;28;20193;-69
2022/02/08 00:26:19;;;;;;;5.90;2.80;;;6.60;99.90;;;;;;5055933;28;20178;-69
2022/02/08 00:28:44;;;;;;;8.10;3.10;;;6.60;99.90;;;;;;5046384;28;20753;-69
2022/02/08 00:31:10;;;;;;;10.93;4.30;;;6.50;99.90;;;;;;5056595;28;20229;-69
2022/02/08 00:33:35;;;;;;;4.60;2.60;;;6.50;99.90;;;;;;5060026;28;20190;-68
2022/02/08 00:36:01;;;;;;;9.53;3.53;;;6.50;99.90;;;;;;5037276;28;20178;-68
2022/02/08 00:38:27;;;;;;;8.73;3.23;;;6.60;99.90;;;;;;5049740;28;20202;-69
2022/02/08 00:40:58;;;;;;;10.23;2.70;;;6.50;99.90;;;;;;5036918;28;20184;-69
2022/02/08 00:43:28;;;;;;;11.60;3.53;;;6.40;99.90;;;;;;5054732;28;20432;-69
2022/02/08 00:46:01;;;;;;;11.20;4.10;;;6.50;99.90;;;;;;5060566;28;20947;-68
2022/02/08 00:48:31;;;;;;;12.67;3.27;;;6.40;99.90;;;;;;5042492;28;20437;-68
2022/02/08 00:50:57;;;;;;;7.27;2.93;;;6.30;99.90;;;;;;5034547;28;20522;-68
2022/02/08 00:53:24;;;;;;;14.40;3.20;;;6.40;99.90;;;;;;5034744;28;20421;-69
2022/02/08 00:55:49;;;;;;;10.60;3.47;;;6.30;99.90;;;;;;5038748;28;20425;-69
2022/02/08 00:58:15;;;;;;;12.50;3.53;;;6.30;99.90;;;;;;5054602;28;20443;-69
2022/02/08 01:00:40;;;;;;;8.77;3.80;;;6.30;99.90;;;;;;5053420;28;20194;-69
2022/02/08 01:03:08;;;;;;;11.50;4.03;;;6.20;99.90;;;;;;5054384;28;20181;-69
2022/02/08 01:05:38;;;;;;;6.77;3.20;;;6.20;99.90;;;;;;5053874;28;20200;-69
2022/02/08 01:08:04;;;;;;;7.80;3.50;;;6.20;99.90;;;;;;5055682;28;20474;-68
2022/02/08 01:10:36;;;;;;;16.10;3.83;;;6.20;99.90;;;;;;5054429;28;20813;-70
2022/02/08 01:13:02;;;;;;;9.10;3.30;;;6.20;99.90;;;;;;5053834;28;20404;-71
2022/02/08 01:15:27;;;;;;;13.07;4.00;;;6.20;99.90;;;;;;5053722;28;20408;-69
2022/02/08 01:17:56;;;;;;;8.90;3.70;;;6.20;99.90;;;;;;5054297;28;20531;-69
2022/02/08 01:20:30;;;;;;;11.33;4.40;;;6.20;99.90;;;;;;5051187;28;20170;-69
2022/02/08 01:22:56;;;;;;;10.43;4.27;;;6.20;99.90;;;;;;5049513;28;20401;-69
2022/02/08 01:25:28;;;;;;;7.90;3.63;;;6.30;99.90;;;;;;5035994;28;20458;-69
2022/02/08 01:27:58;;;;;;;8.93;3.80;;;6.20;99.90;;;;;;5055236;28;20208;-69
2022/02/08 01:30:43;;;;;;;15.67;5.80;;;6.30;99.90;;;;;;5054462;28;20486;-69
2022/02/08 01:38:13;;;;;;;11.13;4.07;;;6.20;99.90;;;;;;5060813;28;20754;-69
2022/02/08 01:48:15;;;;;;;11.63;4.97;;;6.40;99.90;;;;;;5074841;28;20815;-70
2022/02/08 01:50:42;;;;;;;10.67;5.07;;;6.30;99.90;;;;;;5072898;28;20420;-68
2022/02/08 01:53:08;;;;;;;12.30;5.27;;;6.30;99.90;;;;;;5074036;28;21002;-69
2022/02/08 01:55:34;;;;;;;8.33;4.83;;;6.30;99.90;;;;;;5073762;28;20403;-69
2022/02/08 01:58:02;;;;;;;6.47;4.90;;;6.30;99.90;;;;;;5073049;28;20430;-68
2022/02/08 02:00:28;;;;;;;7.63;4.83;;;6.40;99.90;;;;;;5053904;28;20521;-68
2022/02/08 02:02:54;;;;;;;5.57;4.27;;;6.30;99.90;;;;;;5074258;28;20454;-68
2022/02/08 02:05:20;;;;;;;6.17;4.50;;;6.40;99.90;;;;;;5073470;28;20412;-68
2022/02/08 02:07:50;;;;;;;7.90;4.53;;;6.30;99.90;;;;;;5072530;28;20561;-68
2022/02/08 02:10:18;;;;;;;5.80;3.90;;;6.30;99.90;;;;;;5071197;28;20180;-68
2022/02/08 02:12:58;;;;;;;9.40;4.10;;;6.30;99.90;;;;;;5071385;28;20456;-69
2022/02/08 02:15:25;;;;;;;5.13;3.50;;;6.30;99.90;;;;;;5072971;28;20399;-68
2022/02/08 02:17:51;;;;;;;5.63;4.00;;;6.30;99.90;;;;;;5072641;28;20443;-68
2022/02/08 02:20:18;;;;;;;4.70;4.00;;;6.40;99.90;;;;;;5072789;28;20415;-68
2022/02/08 02:22:44;;;;;;;6.27;3.20;;;6.40;99.90;;;;;;5071254;28;20431;-69
2022/02/08 02:25:24;;;;;;;4.20;3.47;;;6.40;99.90;;;;;;5072524;28;20431;-69
2022/02/08 02:27:52;;;;;;;6.30;4.07;;;6.40;99.90;;;;;;5072799;28;20534;-68
2022/02/08 02:30:18;;;;;;;6.77;5.13;;;6.40;99.90;;;;;;5072721;28;20758;-69
2022/02/08 02:32:43;;;;;;;4.83;4.27;;;6.40;99.90;;;;;;5072471;28;20457;-69
2022/02/08 02:35:09;;;;;;;5.77;4.03;;;6.40;99.90;;;;;;5074232;28;20166;-69
2022/02/08 02:37:35;;;;;;;5.10;4.70;;;6.40;99.90;;;;;;5072492;28;20246;-68
2022/02/08 02:40:00;;;;;;;6.30;5.60;;;6.40;99.90;;;;;;5054443;28;20424;-69
2022/02/08 02:42:27;;;;;;;5.90;5.03;;;6.30;99.90;;;;;;5052778;28;20212;-68
2022/02/08 02:44:53;;;;;;;10.00;5.53;;;6.40;99.90;;;;;;5034461;28;20552;-69
2022/02/08 02:47:19;;;;;;;6.47;5.47;;;6.40;99.90;;;;;;5052210;28;20408;-69
2022/02/08 02:49:44;;;;;;;7.00;6.30;;;6.30;99.90;;;;;;5050775;28;20185;-69
2022/02/08 02:52:10;;;;;;;6.40;5.63;;;6.40;99.90;;;;;;5040292;28;20457;-69
2022/02/08 02:54:36;;;;;;;8.03;6.20;;;6.40;99.90;;;;;;5052411;28;20178;-69
2022/02/08 02:57:02;;;;;;;10.63;7.43;;;6.50;99.90;;;;;;5052598;28;20311;-68
2022/02/08 02:59:32;;;;;;;8.67;7.37;;;6.50;99.90;;;;;;5035004;28;20229;-69
2022/02/08 03:02:20;;;;;;;7.90;7.10;;;6.40;99.90;;;;;;5051860;28;20435;-68
2022/02/08 03:20:50;;;;;;;7.67;6.97;;;6.50;99.90;;;;;;5053742;28;20416;-69
2022/02/08 03:23:16;;;;;;;8.23;7.43;;;6.50;99.90;;;;;;5051641;28;20189;-68
2022/02/08 03:25:42;;;;;;;9.57;6.73;;;6.50;99.90;;;;;;5051312;28;20636;-68
2022/02/08 03:28:08;;;;;;;13.10;7.60;;;6.50;99.90;;;;;;5066467;22;20584;-71
2022/02/08 03:30:33;;;;;;;9.07;7.20;;;6.60;99.90;;;;;;5019716;28;20496;-71
2022/02/08 03:32:59;;;;;;;8.20;6.50;;;6.60;99.90;;;;;;5046218;28;20550;-71
2022/02/08 03:35:25;;;;;;;7.83;6.87;;;6.70;99.90;;;;;;5050996;28;20694;-71
2022/02/08 03:38:03;;;;;;;8.43;7.60;;;6.70;99.90;;;;;;5053013;28;20428;-71
2022/02/08 03:45:47;;;;;;;8.07;6.40;;;6.60;99.90;;;;;;5054601;28;21127;-71
2022/02/08 03:48:16;;;;;;;10.63;6.80;;;6.60;99.90;;;;;;5051193;28;20437;-69
2022/02/08 03:50:44;;;;;;;8.53;7.30;;;6.70;99.90;;;;;;5034361;28;20436;-70
2022/02/08 03:53:09;;;;;;;8.47;7.60;;;6.70;99.90;;;;;;5042440;28;20429;-71
2022/02/08 03:55:35;;;;;;;9.13;8.20;;;6.60;99.90;;;;;;5054227;28;20412;-70
2022/02/08 03:58:00;;;;;;;12.07;8.33;;;6.70;99.90;;;;;;5054603;28;20526;-71
2022/02/08 04:00:30;;;;;;;9.90;8.80;;;6.70;99.90;;;;;;5054446;28;20173;-70
2022/02/08 04:02:57;;;;;;;13.20;9.40;;;6.70;99.90;;;;;;5054064;28;20600;-70
2022/02/08 04:05:29;;;;;;;10.70;9.20;;;6.70;99.90;;;;;;5054232;28;20419;-70
2022/02/08 04:07:59;;;;;;;9.50;8.60;;;6.70;99.90;;;;;;5054200;28;20433;-71
2022/02/08 04:10:27;;;;;;;11.53;10.17;;;6.70;99.90;;;;;;5054242;28;20401;-70
2022/02/08 04:13:08;;;;;;;12.40;10.00;;;6.80;99.90;;;;;;5054178;28;20484;-71
2022/02/08 04:48:20;;;;;;;10.60;9.30;;;7.00;99.90;;;;;;4997432;28;20436;-70
2022/02/08 04:50:46;;;;;;;10.53;9.20;;;7.10;99.90;;;;;;5020146;28;20827;-71
2022/02/08 04:53:20;;;;;;;11.53;8.40;;;7.10;99.90;;;;;;5014684;28;20513;-71
2022/02/08 04:55:55;;;;;;;9.97;8.40;;;7.10;99.90;;;;;;5032909;28;20406;-71
2022/02/08 04:58:29;;;;;;;17.50;10.63;;;7.10;99.90;;;;;;5027875;28;20499;-71
2022/02/08 05:34:33;;;;;;;10.30;9.20;;;7.40;99.90;;;;;;5022591;28;20482;-70
2022/02/08 05:36:42;;;;;;;12.23;9.53;;;7.40;99.90;;;;;;5023508;28;20568;-69
2022/02/08 05:42:08;;;;;;;10.57;9.47;;;7.40;99.90;;;;;;5025045;28;20454;-70
2022/02/08 05:44:34;;;;;;;10.30;9.20;;;7.40;99.90;;;;;;5027294;28;20487;-70
2022/02/08 05:47:00;;;;;;;10.23;8.00;;;7.40;99.90;;;;;;5012766;28;20457;-70
2022/02/08 05:49:41;;;;;;;11.43;9.40;;;7.40;99.90;;;;;;5011052;28;20466;-70
2022/02/08 05:54:37;;;;;;;12.00;9.90;;;7.40;99.90;;;;;;5035530;28;20465;-68
2022/02/08 05:57:02;;;;;;;9.30;8.37;;;7.40;99.90;;;;;;5036978;28;20457;-68
2022/02/08 05:59:28;;;;;;;10.93;9.80;;;7.40;99.90;;;;;;5027428;28;20523;-69
2022/02/08 06:01:54;;;;;;;10.87;9.73;;;7.40;99.90;;;;;;5027784;28;20234;-68
2022/02/08 06:04:20;;;;;;;10.83;9.17;;;7.40;99.90;;;;;;5035850;28;20460;-69
2022/02/08 06:06:46;;;;;;;11.87;9.83;;;7.40;99.90;;;;;;5012494;28;20203;-69
2022/02/08 06:09:12;;;;;;;12.50;10.23;;;7.40;99.90;;;;;;5034489;28;20214;-69
2022/02/08 06:11:38;;;;;;;12.13;10.83;;;7.40;99.90;;;;;;5027691;28;20290;-70
2022/02/08 06:14:05;;;;;;;12.53;10.97;;;7.40;99.90;;;;;;5033842;28;20861;-70
2022/02/08 06:16:32;;;;;;;12.40;11.07;;;7.40;99.90;;;;;;5047092;28;20821;-68
2022/02/08 06:18:58;;;;;;;12.90;11.00;;;7.50;99.90;;;;;;5029362;28;20523;-69
2022/02/08 06:21:24;;;;;;;12.20;9.80;;;7.50;99.90;;;;;;5029831;28;20492;-70
2022/02/08 06:23:49;;;;;;;11.83;10.40;;;7.50;99.90;;;;;;5013876;28;20170;-70
2022/02/08 06:26:16;;;;;;;13.87;10.50;;;7.50;99.90;;;;;;5049361;28;20498;-69
2022/02/08 06:28:42;;;;;;;11.20;10.00;;;7.50;99.90;;;;;;5050943;28;20210;-69
2022/02/08 06:31:09;;;;;;;10.10;9.10;;;7.50;99.90;;;;;;5051501;28;20459;-69
2022/02/08 06:33:34;;;;;;;10.23;9.20;;;7.50;99.90;;;;;;5051508;28;20401;-69
2022/02/08 06:36:00;;;;;;;9.83;8.83;;;7.50;99.90;;;;;;5050843;28;20420;-70
2022/02/08 06:38:26;;;;;;;10.33;9.33;;;7.50;99.90;;;;;;5050965;28;20197;-70
2022/02/08 06:40:53;;;;;;;10.93;9.03;;;7.50;99.90;;;;;;5051460;28;20170;-69
2022/02/08 06:43:20;;;;;;;11.50;10.30;;;7.50;99.90;;;;;;5050894;28;20411;-69
2022/02/08 06:45:46;;;;;;;10.80;9.70;;;7.50;99.90;;;;;;5051136;28;20544;-69
2022/02/08 06:48:12;;;;;;;11.80;10.60;;;7.50;99.90;;;;;;5051424;28;20429;-70
2022/02/08 06:50:38;;;;;;;10.33;8.93;;;7.50;99.90;;;;;;5050784;28;20178;-69
2022/02/08 06:53:04;;;;;;;9.93;8.10;;;7.60;99.90;;;;;;5051208;28;20223;-70
2022/02/08 06:55:30;;;;;;;11.40;10.30;;;7.60;99.90;;;;;;5050686;28;20498;-69
2022/02/08 06:58:03;;;;;;;10.20;8.87;;;7.60;99.90;;;;;;5051226;28;20659;-70
2022/02/08 07:00:39;;;;;;;9.53;7.40;;;7.50;99.90;;;;;;5050818;28;20475;-70
2022/02/08 07:03:15;;;;;;;9.10;8.00;;;7.60;99.90;;;;;;5050846;28;20419;-69
2022/02/08 07:05:41;;;;;;;10.13;9.03;;;7.50;99.90;;;;;;5050641;28;20464;-69
2022/02/08 07:08:08;;;;;;;9.87;8.83;;;7.60;99.90;;;;;;5050831;28;20448;-69
2022/02/08 07:10:34;;;;;;;11.97;10.03;;;7.60;99.90;;;;;;5050641;28;20421;-69
2022/02/08 07:13:02;;;;;;;11.37;10.20;;;7.60;99.90;;;;;;5053744;28;21276;-69
2022/02/08 07:15:28;;;;;;;11.30;10.10;;;7.70;99.90;;;;;;5037514;28;20404;-69
2022/02/08 07:17:53;;;;;;;11.97;10.50;;;7.70;99.90;;;;;;5054984;28;20754;-69
2022/02/08 07:20:19;;;;;;;12.00;10.13;;;7.60;99.90;;;;;;5054723;28;20182;-69
2022/02/08 07:22:44;;;;;;;10.53;9.43;;;7.60;99.90;;;;;;5036854;28;20184;-69
2022/02/08 07:25:11;;;;;;;12.80;10.13;;;7.70;99.90;;;;;;5054841;28;20202;-68
2022/02/08 07:27:37;;;;;;;11.53;9.80;;;7.70;99.90;;;;;;5053992;28;20211;-70
2022/02/08 07:30:10;;;;;;;12.60;10.53;;;7.70;99.90;;;;;;5054338;28;20719;-69
2022/02/08 07:32:38;;;;;;;9.27;8.27;;;7.70;99.90;;;;;;5054350;28;20452;-70
2022/02/08 07:35:23;;;;;;;10.93;9.17;;;7.70;99.90;;;;;;5055173;28;20424;-69
2022/02/08 07:37:53;;;;;;;12.67;9.07;;;7.80;99.90;;;;;;5054066;28;20435;-69
2022/02/08 07:40:29;;;;;;;10.70;9.60;;;7.80;99.90;;;;;;5054496;28;20463;-69
2022/02/08 07:42:56;;;;;;;12.40;10.27;;;7.80;99.90;;;;;;5054398;28;20424;-69
2022/02/08 07:45:22;;;;;;;10.60;9.30;;;7.80;99.90;;;;;;5054761;28;20423;-70
2022/02/08 07:47:47;;;;;;;11.17;8.80;;;7.80;99.90;;;;;;5054506;28;20432;-70
2022/02/08 07:50:13;;;;;;;10.20;9.20;;;7.80;99.90;;;;;;5054476;28;20732;-69
2022/02/08 07:52:40;;;;;;;10.60;9.50;;;7.90;99.90;;;;;;5054124;28;20212;-69
2022/02/08 07:55:06;;;;;;;9.37;8.47;;;7.90;99.90;;;;;;5054462;28;20415;-69
2022/02/08 07:57:31;;;;;;;10.57;8.93;;;7.90;99.90;;;;;;5054093;28;20448;-70
2022/02/08 07:59:57;;;;;;;10.80;9.33;;;7.90;99.90;;;;;;5055206;28;20901;-70
2022/02/08 08:02:22;;;;;;;10.77;9.30;;;7.90;99.90;;;;;;5036504;28;20190;-69
2022/02/08 08:04:48;;;;;;;12.43;8.90;;;8.00;99.90;;;;;;5054872;28;20401;-70
2022/02/08 08:07:13;;;;;;;12.77;9.40;;;8.00;99.90;;;;;;5061341;28;20182;-68
2022/02/08 08:09:41;;;;;;;11.80;9.70;;;7.90;99.90;;;;;;5060550;28;20198;-69
2022/02/08 08:12:11;;;;;;;14.47;10.73;;;8.00;99.90;;;;;;5054272;28;20209;-70
2022/02/08 08:14:36;;;;;;;15.23;10.93;;;8.00;99.90;;;;;;5036287;28;20427;-69
2022/02/08 08:17:35;;;;;;;14.03;10.60;;;8.00;99.90;;;;;;5054209;28;20413;-69
2022/02/08 08:19:50;;;;;;;19.03;10.60;;;8.00;99.90;;;;;;5053846;28;20475;-69
2022/02/08 08:22:17;;;;;;;13.20;11.33;;;8.00;99.90;;;;;;5054295;28;20416;-69
2022/02/08 08:24:43;;;;;;;14.03;11.67;;;8.00;99.90;;;;;;5053344;28;20431;-69
2022/02/08 08:27:08;;;;;;;13.50;12.10;;;8.00;99.90;;;;;;5053453;28;20770;-69
2022/02/08 08:29:34;;;;;;;17.23;11.60;;;8.00;99.90;;;;;;5053427;28;20459;-69
2022/02/08 08:31:59;;;;;;;15.60;13.00;;;8.10;99.90;;;;;;5053868;28;20289;-69
2022/02/08 08:34:25;;;;;;;14.97;12.17;;;8.10;99.90;;;;;;5053587;28;20182;-69
2022/02/08 08:36:51;;;;;;;14.27;10.90;;;8.10;99.90;;;;;;5053081;28;20186;-69
2022/02/08 08:39:25;;;;;;;16.00;11.50;;;8.20;99.90;;;;;;5053467;28;20721;-69
2022/02/08 08:42:07;;;;;;;14.57;12.47;;;8.20;99.90;;;;;;5054240;28;20451;-70
2022/02/08 08:44:58;;;;;;;15.33;12.27;;;8.20;99.90;;;;;;5053971;28;20393;-70
2022/02/08 08:50:11;;;;;;;13.60;12.20;;;8.20;99.90;;;;;;5053235;28;20532;-70
2022/02/08 08:52:42;;;;;;;15.53;12.10;;;8.20;99.90;;;;;;5053685;28;20471;-71
2022/02/08 08:55:09;;;;;;;13.60;11.53;;;8.20;99.90;;;;;;5053575;28;20391;-70
2022/02/08 08:57:34;;;;;;;15.80;12.27;;;8.30;99.90;;;;;;5052980;28;20404;-70
2022/02/08 09:00:00;;;;;;;14.13;11.30;;;8.30;99.90;;;;;;5053217;28;20932;-69
2022/02/08 09:02:26;;;;;;;15.03;10.43;;;8.30;99.90;;;;;;5053152;28;20551;-70
2022/02/08 09:04:53;;;;;;;16.53;11.80;;;8.30;99.90;;;;;;5053347;28;20409;-70
2022/02/08 09:07:19;;;;;;;15.43;12.60;;;8.40;99.90;;;;;;5052635;28;20597;-69
2022/02/08 09:09:47;;;;;;;13.20;11.80;;;8.40;99.90;;;;;;5052319;28;20462;-70
2022/02/08 09:12:24;;;;;;;15.33;12.13;;;8.40;99.90;;;;;;5052904;28;20187;-70
2022/02/08 09:15:10;;;;;;;15.20;12.27;;;8.40;99.90;;;;;;5053425;28;20466;-69
2022/02/08 09:25:54;;;;;;;13.67;10.90;;;8.50;99.90;;;;;;5052649;28;20919;-70
2022/02/08 09:28:21;;;;;;;13.23;10.77;;;8.60;99.90;;;;;;5067796;22;20578;-66
2022/02/08 09:30:55;;;;;;;13.43;10.30;;;8.60;99.90;;;;;;5034987;28;20459;-68
2022/02/08 09:33:21;;;;;;;12.60;10.40;;;8.70;99.90;;;;;;5035400;28;20417;-68
2022/02/08 09:35:47;;;;;;;15.13;10.83;;;8.70;99.90;;;;;;5034935;28;20456;-67
2022/02/08 09:38:13;;;;;;;11.47;10.30;;;8.70;99.90;;;;;;5035442;28;20180;-68
2022/02/08 09:40:38;;;;;;;12.17;10.00;;;8.70;99.90;;;;;;5035433;28;20427;-68
2022/02/08 09:43:05;;;;;;;13.50;9.03;;;8.70;99.90;;;;;;5034587;28;20171;-67
2022/02/08 09:45:33;;;;;;;13.27;9.50;;;8.70;99.90;;;;;;5029485;28;20182;-67
2022/02/08 09:50:28;;;;;;;10.07;9.07;;;8.90;99.90;;;;;;5019228;28;21150;-68
2022/02/08 09:52:58;;;;;;;12.30;9.90;;;8.90;99.90;;;;;;5033711;28;20200;-67
2022/02/08 09:55:25;;;;;;;11.53;9.47;;;8.90;99.90;;;;;;5032654;28;21004;-67
2022/02/08 09:57:51;;;;;;;11.23;9.60;;;8.90;99.90;;;;;;5036358;28;20404;-67
2022/02/08 10:00:18;;;;;;;11.77;10.57;;;8.90;99.90;;;;;;5034117;28;20442;-67
2022/02/08 10:02:44;;;;;;;11.37;9.03;;;9.00;99.90;;;;;;5028784;28;20792;-67
2022/02/08 10:05:11;;;;;;;12.57;9.57;;;9.00;99.90;;;;;;5015122;28;20414;-68
2022/02/08 10:07:37;;;;;;;12.10;10.30;;;9.00;99.90;;;;;;5013471;28;20426;-68
2022/02/08 10:10:06;;;;;;;10.10;9.00;;;9.10;99.90;;;;;;5013862;28;20202;-68
2022/02/08 10:23:58;;;;;;;9.73;8.77;;;9.30;99.90;;;;;;4975991;28;20434;-68
2022/02/08 10:26:44;;;;;;;11.93;8.53;;;9.40;99.90;;;;;;4971702;28;20177;-68
2022/02/08 10:40:07;;;;;;;9.23;7.40;;;9.40;99.90;;;;;;4991183;28;20504;-67
2022/02/08 10:42:34;;;;;;;8.73;7.80;;;9.50;99.90;;;;;;4991635;28;20481;-68
2022/02/08 10:45:01;;;;;;;12.00;7.23;;;9.50;99.90;;;;;;4991237;28;20430;-69
2022/02/08 10:47:41;;;;;;;8.73;6.90;;;9.50;99.90;;;;;;4990891;28;20505;-68
2022/02/08 10:50:08;;;;;;;6.90;6.30;;;9.40;99.90;;;;;;4989634;28;20887;-68
2022/02/08 10:52:36;;;;;;;8.90;6.50;;;9.40;99.90;;;;;;4991032;28;20463;-68
2022/02/08 10:55:43;;;;;;;10.10;6.70;;;9.50;99.90;;;;;;5017027;28;20910;-68
2022/02/08 11:00:36;;;;;;;8.97;6.30;;;9.60;99.90;;;;;;5035670;28;20938;-67
2022/02/08 11:03:06;;;;;;;7.17;5.57;;;9.60;99.90;;;;;;5033781;28;20898;-69
2022/02/08 11:05:47;;;;;;;6.50;5.63;;;9.60;99.90;;;;;;5033281;28;20539;-67
2022/02/08 11:16:01;;;;;;;7.10;4.93;;;9.70;99.90;;;;;;5031752;28;20201;-68
2022/02/08 11:18:44;;;;;;;8.27;5.00;;;9.70;99.90;;;;;;5033282;28;20801;-68
2022/02/08 11:26:38;;;;;;;4.80;4.00;;;9.70;99.90;;;;;;5031562;28;20459;-68
2022/02/08 11:29:11;;;;;;;4.50;4.10;;;9.70;99.90;;;;;;5032480;28;20510;-68
2022/02/08 11:31:41;;;;;;;5.70;4.00;;;9.80;99.90;;;;;;5031761;28;20536;-67
2022/02/08 11:42:57;;;;;;;3.90;3.60;;;9.90;99.90;;;;;;5053105;28;20410;-69
2022/02/08 11:53:20;;;;;;;4.37;3.80;;;10.00;99.90;;;;;;5032115;28;20433;-69
2022/02/08 12:31:27;;;;;;;4.60;3.17;;;10.20;99.90;;;;;;5035687;28;20900;-68
2022/02/08 12:36:43;;;;;;;6.93;2.80;;;10.00;99.90;;;;;;5027068;28;20912;-68
2022/02/08 12:55:43;;;;;;;5.97;3.17;;;10.20;99.90;;;;;;5035099;28;20405;-68
2022/02/08 12:58:33;;;;;;;5.23;2.90;;;10.30;99.90;;;;;;5033509;28;20417;-67
2022/02/08 13:18:28;;;;;;;4.30;2.80;;;10.50;99.90;;;;;;5052784;28;20878;-69
2022/02/08 14:01:58;;;;;;;3.80;2.50;;;10.60;99.90;;;;;;5031468;28;20428;-68
2022/02/08 14:07:15;;;;;;;3.50;2.20;;;10.60;99.90;;;;;;4987928;28;20195;-68
2022/02/08 14:12:57;;;;;;;3.57;2.40;;;10.60;99.90;;;;;;5017188;28;20477;-67
2022/02/08 14:15:30;;;;;;;3.73;2.03;;;10.60;99.90;;;;;;5034281;28;20778;-68
2022/02/08 14:18:06;;;;;;;6.27;2.77;;;10.60;99.90;;;;;;5029443;28;20421;-68
2022/02/08 14:29:12;;;;;;;2.10;1.67;;;10.60;99.90;;;;;;5022967;28;20428;-67
2022/02/08 14:31:52;;;;;;;3.10;2.80;;;10.70;99.90;;;;;;5027093;28;20578;-67
2022/02/08 14:37:15;;;;;;;5.77;2.10;;;10.60;99.90;;;;;;5017852;28;20419;-68
2022/02/08 15:07:56;;;;;;;4.20;2.20;;;10.30;99.90;;;;;;5045198;28;20400;-67
2022/02/08 15:10:18;;;;;;;4.60;2.40;;;10.30;99.90;;;;;;5028926;28;20509;-67
2022/02/08 15:12:51;;;;;;;3.97;2.43;;;10.40;99.90;;;;;;5028121;28;20540;-67
2022/02/08 15:17:57;;;;;;;4.63;2.57;;;10.40;99.90;;;;;;5031615;28;20405;-67
2022/02/08 15:20:24;;;;;;;4.07;2.83;;;10.30;99.90;;;;;;5032337;28;20425;-67
2022/02/08 15:22:50;;;;;;;2.40;2.20;;;10.30;99.90;;;;;;4993679;28;20179;-67
2022/02/08 15:25:16;;;;;;;2.73;2.53;;;10.40;99.90;;;;;;5012551;28;20437;-69
2022/02/08 15:27:43;;;;;;;3.77;2.77;;;10.30;99.90;;;;;;5025621;28;20541;-68
2022/02/08 15:30:10;;;;;;;3.07;2.37;;;10.40;99.90;;;;;;5063356;22;20321;-71
2022/02/08 15:32:36;;;;;;;4.87;2.80;;;10.40;99.90;;;;;;5050899;28;20508;-69
2022/02/08 15:35:03;;;;;;;6.47;3.30;;;10.40;99.90;;;;;;5062233;28;20476;-68
2022/02/08 15:37:31;;;;;;;6.33;3.10;;;10.40;99.90;;;;;;5064999;28;20472;-68
2022/02/08 15:39:57;;;;;;;4.97;2.90;;;10.50;99.90;;;;;;5066909;28;20483;-68
2022/02/08 15:42:30;;;;;;;6.80;2.60;;;10.50;99.90;;;;;;5070043;28;20447;-69
2022/02/08 15:44:57;;;;;;;7.60;2.87;;;10.60;99.90;;;;;;5061617;28;20456;-67
2022/02/08 15:47:23;;;;;;;4.10;2.97;;;10.60;99.90;;;;;;5077825;28;20448;-68
2022/02/08 15:49:57;;;;;;;4.57;2.53;;;10.60;99.90;;;;;;5078416;28;20432;-67
2022/02/08 15:52:56;;;;;;;5.27;3.03;;;10.60;99.90;;;;;;5077027;28;20511;-69
2022/02/08 15:55:15;;;;;;;4.50;2.53;;;10.60;99.90;;;;;;5076068;28;20511;-68
2022/02/08 15:58:02;;;;;;;3.53;2.17;;;10.70;99.90;;;;;;5078992;28;20516;-70
2022/02/08 16:06:49;;;;;;;2.73;2.10;;;10.50;99.90;;;;;;5054221;28;20591;-71
2022/02/08 16:08:54;;;;;;;2.77;2.50;;;10.50;99.90;;;;;;5054933;28;20964;-70
2022/02/08 16:15:19;;;;;;;3.83;2.40;;;10.50;99.90;;;;;;5056523;28;20531;-70
2022/02/08 16:19:49;;;;;;;3.10;2.10;;;10.50;99.90;;;;;;5053183;28;20437;-70
2022/02/08 16:22:30;;;;;;;2.77;2.03;;;10.50;99.90;;;;;;5051620;28;20475;-70
2022/02/08 16:27:34;;;;;;;4.40;2.33;;;10.50;99.90;;;;;;5053893;28;20451;-70
2022/02/08 16:30:35;;;;;;;7.97;2.70;;;10.50;99.90;;;;;;5050856;28;20256;-69
2022/02/08 16:49:50;;;;;;;3.47;3.17;;;10.30;99.90;;;;;;5063681;28;20428;-69
2022/02/08 16:54:40;;;;;;;3.97;3.57;;;10.30;99.90;;;;;;5071377;28;20424;-71
2022/02/08 16:59:45;;;;;;;2.93;2.73;;;10.40;99.90;;;;;;5071528;28;20475;-68
2022/02/08 17:02:17;;;;;;;2.90;2.70;;;10.30;99.90;;;;;;5075636;28;20451;-69
2022/02/08 17:04:42;;;;;;;3.37;3.13;;;10.30;99.90;;;;;;5077395;28;20492;-69
2022/02/08 17:07:08;;;;;;;2.80;2.53;;;10.30;99.90;;;;;;5071163;28;20984;-71
2022/02/08 17:47:42;;;;;;;4.80;4.40;;;10.10;99.90;;;;;;5047448;28;20488;-70
2022/02/08 17:49:42;;;;;;;5.00;3.90;;;10.10;99.90;;;;;;5048044;28;20535;-71
2022/02/08 17:52:07;;;;;;;5.97;5.20;;;10.00;99.90;;;;;;5052860;28;21296;-71
2022/02/08 17:54:33;;;;;;;5.80;3.97;;;10.00;99.90;;;;;;5053304;28;20182;-69
2022/02/08 17:56:59;;;;;;;4.00;3.60;;;10.00;99.90;;;;;;5051916;28;20268;-71
2022/02/08 17:59:25;;;;;;;5.00;4.50;;;10.00;99.90;;;;;;5051839;28;20198;-72
2022/02/08 18:01:51;;;;;;;5.33;4.20;;;10.00;99.90;;;;;;5050984;28;20939;-71
2022/02/08 18:04:18;;;;;;;4.37;3.97;;;10.00;99.90;;;;;;5051616;28;20181;-71
2022/02/08 18:06:43;;;;;;;4.53;4.07;;;10.10;99.90;;;;;;5049926;28;20830;-72
2022/02/08 18:09:09;;;;;;;4.03;3.50;;;10.10;99.90;;;;;;5050587;28;20416;-71
2022/02/08 18:11:40;;;;;;;4.20;3.80;;;10.10;99.90;;;;;;5057021;28;20208;-71
2022/02/08 18:14:08;;;;;;;3.47;3.27;;;10.00;99.90;;;;;;5069297;28;20165;-71
2022/02/08 18:16:35;;;;;;;5.50;3.63;;;10.10;99.90;;;;;;5071624;28;20420;-70
2022/02/08 18:19:10;;;;;;;5.47;4.00;;;10.10;99.90;;;;;;5052925;28;20416;-70
2022/02/08 18:21:41;;;;;;;5.50;3.77;;;10.00;99.90;;;;;;5069627;28;20494;-71
2022/02/08 19:05:21;;;;;;;4.80;4.40;;;10.00;99.90;;;;;;5101934;28;20434;-70
2022/02/08 19:07:19;;;;;;;8.23;5.50;;;9.90;99.90;;;;;;5106843;28;20418;-69
2022/02/08 19:09:51;;;;;;;5.70;5.10;;;10.00;99.90;;;;;;5106976;28;20434;-69
2022/02/08 19:12:35;;;;;;;5.33;4.80;;;9.90;99.90;;;;;;5064527;28;20448;-69
2022/02/08 19:20:07;;;;;;;6.10;5.50;;;9.90;99.90;;;;;;5075275;28;20438;-70
2022/02/08 19:22:33;;;;;;;6.13;5.27;;;9.90;99.90;;;;;;5075067;28;20181;-70
2022/02/08 19:24:59;;;;;;;6.30;5.70;;;9.90;99.90;;;;;;5083172;28;20422;-71
2022/02/08 19:27:25;;;;;;;8.00;5.80;;;10.00;99.90;;;;;;5078168;28;20184;-70
2022/02/08 19:29:51;;;;;;;6.20;5.00;;;10.00;99.90;;;;;;5094637;28;20477;-69
2022/02/08 19:32:17;;;;;;;5.87;5.37;;;10.00;99.90;;;;;;5085455;28;20450;-70
2022/02/08 19:34:45;;;;;;;5.63;5.10;;;10.00;99.90;;;;;;5078798;28;20184;-69
2022/02/08 19:37:12;;;;;;;5.43;4.93;;;9.90;99.90;;;;;;5062892;28;20423;-69
2022/02/08 19:39:40;;;;;;;8.33;5.77;;;9.90;99.90;;;;;;5058008;28;20937;-70
2022/02/08 19:42:07;;;;;;;5.57;5.07;;;9.90;99.90;;;;;;5076034;28;20454;-69
2022/02/08 19:44:33;;;;;;;6.70;6.00;;;9.90;99.90;;;;;;5073743;28;20774;-70
2022/02/08 19:46:59;;;;;;;5.70;5.10;;;9.90;99.90;;;;;;5074071;28;20415;-70
2022/02/08 19:49:25;;;;;;;5.07;4.67;;;9.90;99.90;;;;;;5074750;28;20216;-71
2022/02/08 19:51:52;;;;;;;8.43;4.50;;;9.80;99.90;;;;;;5073945;28;20432;-69
2022/02/08 19:54:23;;;;;;;4.80;4.40;;;9.90;99.90;;;;;;5091158;28;20417;-68
2022/02/08 19:56:57;;;;;;;7.93;5.40;;;9.90;99.90;;;;;;5094302;28;20398;-69
2022/02/08 19:59:37;;;;;;;6.00;4.70;;;9.90;99.90;;;;;;5094047;28;20477;-70
2022/02/08 20:02:07;;;;;;;5.87;4.63;;;9.90;99.90;;;;;;5094490;28;20458;-70
2022/02/08 20:04:33;;;;;;;4.93;4.33;;;10.00;99.90;;;;;;5092407;28;20419;-70
2022/02/08 20:07:00;;;;;;;6.80;4.80;;;9.90;99.90;;;;;;5093554;28;20407;-71
2022/02/08 20:09:27;;;;;;;5.10;4.60;;;9.90;99.90;;;;;;5093269;28;20413;-69
2022/02/08 20:11:53;;;;;;;5.93;4.57;;;9.90;99.90;;;;;;5085035;28;20419;-69
2022/02/08 20:14:19;;;;;;;6.00;4.90;;;9.90;99.90;;;;;;5076214;28;20430;-69
2022/02/08 20:16:45;;;;;;;4.43;3.87;;;9.90;99.90;;;;;;5073822;28;20423;-70
2022/02/08 20:19:13;;;;;;;7.43;4.50;;;9.90;99.90;;;;;;5073365;28;20450;-70
2022/02/08 20:21:38;;;;;;;5.20;4.70;;;9.90;99.90;;;;;;5074544;28;20255;-71
2022/02/08 20:24:07;;;;;;;4.33;3.93;;;9.90;99.90;;;;;;5073767;28;20420;-69
2022/02/08 20:26:47;;;;;;;5.37;4.77;;;9.90;99.90;;;;;;5091883;28;20177;-69
2022/02/08 20:29:24;;;;;;;4.90;4.10;;;9.90;99.90;;;;;;5093867;28;20406;-70
2022/02/08 20:31:50;;;;;;;4.23;3.80;;;9.80;99.90;;;;;;5093583;28;20401;-69